Wichita, KS (67235)

6:32 AM CDT on July 22, 2017 (GMT -0500)
| | Change Station
Active Advisory: Excessive Heat Warning Active Notice: Public Information Statement

Elev -9999 ft 0.00 °N, 0.00 °E | Updated 6 minutes ago

Clear
Clear
°F
Feels Like °F
N
Wind Variable Wind from North
Gusts mph

Today
High -- | Low -- °F
--% Chance of Precip.
Yesterday
High -- | Low -- °F
Precip. -- in
Pressure 29.81 in
Visibility 10.0 miles
Clouds Clear
Dew Point Not available.
Humidity Not available.
Rainfall --
Snow Depth Not available.
6:25 AM 8:46 PM
Waning Crescent, 1% visible
METAR KICT 221053Z 19008KT 10SM CLR 26/21 A2987 RMK AO2 SLP095 T02610206
Pressure 29.81 in
Visibility 10.0 miles
Clouds Clear
Dew Point Not available.
Humidity Not available.
Rainfall --
Snow Depth Not available.
6:25 AM 8:46 PM
Waning Crescent, 1% visible
METAR KICT 221053Z 19008KT 10SM CLR 26/21 A2987 RMK AO2 SLP095 T02610206

Get Your Daily Forecast Email!

Thanks for signing up!

Be on the lookout for a verification email in your inbox.

You'll start receiving severe weather alerts in your inbox..

×

10-Day Weather Forecast

Almanac

Astronomy

Jul. 22, 2017 Rise Set
Actual Time
Civil Twilight
Nautical Twilight
Astronomical Twilight
Moon
Length of Visible Light
Length of Day
Tomorrow will be .
, % of the Moon is Illuminated

Today's Extremes

State Highs State Lows

Community

WunderPhotos

Category 6

Welcome to Category 6. This is the collective home for Weather Underground's featured writeups by Dr. Jeff Masters (right), Bob Henson (left), Chris Burt, and other regular contributors.

Nearby

Air Quality

  Air Quality AQ Index Pollutant
Not available.

Snow Depth

Station Depth Elevation

Earthquake Activity

City Distance Mag. Time & Date
Minimum magnitude displayed is 2.5.

Coastal Water Temperatures

Place Temperature

Stations

Nearby Weather Stations

Station Location Temp. Windchill Dew Point Humidity Wind Precip. Elev Updated Type
                   

Watches & Warnings

Excessive Heat Warning
Issued: 3:12 AM CDT Jul. 22, 2017 – National Weather Service

... Excessive heat warning remains in effect until 8 PM CDT this
evening...

* timing... late this morning through early to mid-evening.

* Heat indices... will range from near 105 to 110 degrees.

* Impacts... prolonged exposure to the heat and humidity may lead
to heat-related illnesses if precautions are not taken.

Precautionary/preparedness actions...

An excessive heat warning means that a prolonged period of
dangerously hot temperatures will occur. The combination of hot
temperatures and high humidity will create a dangerous situation
where heat illnesses are likely. Drink plenty of fluids and stay
in an air conditioned room. Stay out of the sun and check up on
relatives and neighbors. Temperatures within vehicles can become
lethal in a few minutes. Never leave children or pets in
vehicles. Remember to beat the heat... check the backseat.